createdAt,value
2022-08-24T00:00:26.071Z,70.06
2022-08-24T00:02:52.839Z,70.02
2022-08-24T00:05:21.460Z,69.62
2022-08-24T00:07:49.602Z,69.23
2022-08-24T00:10:17.423Z,68.97
2022-08-24T00:12:44.075Z,69.11
2022-08-24T00:15:13.457Z,68.94
2022-08-24T00:17:40.561Z,68.91
2022-08-24T00:20:09.657Z,68.71
2022-08-24T00:22:36.283Z,68.78
2022-08-24T00:25:03.943Z,68.55
2022-08-24T00:27:30.779Z,68.64
2022-08-24T00:29:57.684Z,68.74
2022-08-24T00:32:24.403Z,68.70
2022-08-24T00:34:59.296Z,68.61
2022-08-24T00:37:28.730Z,68.44
2022-08-24T00:39:56.433Z,68.28
2022-08-24T00:42:24.794Z,68.37
2022-08-24T00:44:52.199Z,68.07
2022-08-24T00:47:25.742Z,67.82
2022-08-24T00:49:58.528Z,67.90
2022-08-24T00:52:33.581Z,67.75
2022-08-24T00:55:09.715Z,67.86
2022-08-24T00:57:40.346Z,67.90
2022-08-24T01:00:15.747Z,67.84
2022-08-24T01:02:45.738Z,68.15
2022-08-24T01:05:13.023Z,68.12
2022-08-24T01:07:40.645Z,68.21
2022-08-24T01:10:13.685Z,68.31
2022-08-24T01:12:48.235Z,68.14
2022-08-24T01:15:27.347Z,68.43
2022-08-24T01:18:13.073Z,68.38
2022-08-24T01:20:40.051Z,68.42
2022-08-24T01:23:36.796Z,68.32
2022-08-24T01:26:05.354Z,67.89
2022-08-24T01:28:33.608Z,67.76
2022-08-24T01:31:03.909Z,67.80
2022-08-24T01:33:32.060Z,68.32
2022-08-24T01:36:04.999Z,68.43
2022-08-24T01:38:33.430Z,69.29
2022-08-24T01:41:02.896Z,69.29
2022-08-24T01:43:30.439Z,69.02
2022-08-24T01:45:58.583Z,69.57
2022-08-24T01:48:25.305Z,69.67
2022-08-24T01:50:53.894Z,69.45
2022-08-24T01:53:22.824Z,69.39
2022-08-24T01:55:50.417Z,69.35
2022-08-24T01:58:18.341Z,69.48
2022-08-24T02:00:45.427Z,69.34
2022-08-24T02:03:14.009Z,69.39
2022-08-24T02:05:42.849Z,69.54
2022-08-24T02:08:14.370Z,69.44
2022-08-24T02:10:41.010Z,69.39
2022-08-24T02:13:15.919Z,69.36
2022-08-24T02:15:42.791Z,69.50
2022-08-24T02:18:15.615Z,69.48
2022-08-24T02:20:44.391Z,69.80
2022-08-24T02:23:11.031Z,69.55
2022-08-24T02:25:37.745Z,69.59
2022-08-24T02:28:04.858Z,69.69
2022-08-24T02:30:32.778Z,69.56
2022-08-24T02:33:00.268Z,69.96
2022-08-24T02:35:29.787Z,70.09
2022-08-24T02:37:57.667Z,70.54
2022-08-24T02:40:27.284Z,70.64
2022-08-24T02:42:55.685Z,71.02
2022-08-24T02:45:22.326Z,70.75
2022-08-24T02:47:49.644Z,71.48
2022-08-24T02:50:17.817Z,71.05
2022-08-24T02:52:45.396Z,71.38
2022-08-24T02:55:15.712Z,71.08
2022-08-24T02:57:47.898Z,71.57
2022-08-24T03:00:17.503Z,71.46
2022-08-24T03:02:51.569Z,72.12
2022-08-24T03:05:18.922Z,72.43
2022-08-24T03:07:45.554Z,72.41
2022-08-24T03:10:12.625Z,72.82
2022-08-24T03:12:39.659Z,72.80
2022-08-24T03:15:10.583Z,72.43
2022-08-24T03:17:39.909Z,72.83
2022-08-24T03:20:12.157Z,72.86
2022-08-24T03:22:39.781Z,73.14
2022-08-24T03:25:07.690Z,73.02
2022-08-24T03:27:34.794Z,73.23
2022-08-24T03:30:01.549Z,72.88
2022-08-24T03:32:29.039Z,73.13
2022-08-24T03:34:55.952Z,73.23
2022-08-24T03:37:22.549Z,72.58
2022-08-24T03:39:51.023Z,72.91
2022-08-24T03:42:18.615Z,72.71
2022-08-24T03:44:45.373Z,73.12
2022-08-24T03:47:12.120Z,72.61
2022-08-24T03:49:39.581Z,72.71
2022-08-24T03:52:07.450Z,73.01
2022-08-24T03:54:34.732Z,72.34
2022-08-24T03:57:01.750Z,72.46
2022-08-24T03:59:28.686Z,72.47
2022-08-24T04:01:58.323Z,72.84
2022-08-24T04:04:26.738Z,72.97
2022-08-24T04:06:53.429Z,72.84
2022-08-24T04:09:20.868Z,72.67
2022-08-24T04:11:47.777Z,72.64
2022-08-24T04:14:27.579Z,72.93
2022-08-24T04:17:14.213Z,73.31
2022-08-24T04:19:57.632Z,73.17
2022-08-24T04:22:30.580Z,72.90
2022-08-24T04:24:57.336Z,72.42
2022-08-24T04:27:24.490Z,72.00
2022-08-24T04:29:51.308Z,71.83
2022-08-24T04:32:18.758Z,72.16
2022-08-24T04:34:47.050Z,72.14
2022-08-24T04:37:14.718Z,71.89
2022-08-24T04:39:42.288Z,71.48
2022-08-24T04:42:24.389Z,71.96
2022-08-24T04:44:52.388Z,71.72
2022-08-24T04:47:22.355Z,71.67
2022-08-24T04:49:49.017Z,70.94
2022-08-24T04:52:15.926Z,71.03
2022-08-24T04:54:43.118Z,71.43
2022-08-24T04:57:18.010Z,71.14
2022-08-24T04:59:46.574Z,71.49
2022-08-24T05:02:13.366Z,71.55
2022-08-24T05:04:40.140Z,71.42
2022-08-24T05:07:07.543Z,71.38
2022-08-24T05:09:34.416Z,71.45
2022-08-24T05:12:01.951Z,71.92
2022-08-24T05:14:33.439Z,71.52
2022-08-24T05:17:00.374Z,71.58
2022-08-24T05:19:30.741Z,71.25
2022-08-24T05:21:57.525Z,70.97
2022-08-24T05:24:24.935Z,70.93
2022-08-24T05:26:53.131Z,70.89
2022-08-24T05:29:20.770Z,70.42
2022-08-24T05:31:49.822Z,70.23
2022-08-24T05:34:17.995Z,70.26
2022-08-24T05:36:45.576Z,69.59
2022-08-24T05:39:21.275Z,69.79
2022-08-24T05:41:54.184Z,69.26
2022-08-24T05:44:30.760Z,69.34
2022-08-24T05:47:01.125Z,69.94
2022-08-24T05:49:28.523Z,70.55
2022-08-24T05:51:55.548Z,71.18
2022-08-24T05:54:23.396Z,71.91
2022-08-24T05:57:04.668Z,72.58
2022-08-24T05:59:36.876Z,72.79
2022-08-24T06:02:09.625Z,73.15
2022-08-24T06:04:38.184Z,73.25
2022-08-24T06:07:06.332Z,73.58
2022-08-24T06:09:34.552Z,73.27
2022-08-24T06:12:01.120Z,73.15
2022-08-24T06:14:28.136Z,73.03
2022-08-24T06:16:57.973Z,72.94
2022-08-24T06:19:26.962Z,73.11
2022-08-24T06:21:55.396Z,73.11
2022-08-24T06:24:45.983Z,73.11
2022-08-24T06:27:23.982Z,72.82
2022-08-24T06:30:05.147Z,72.54
2022-08-24T06:32:52.019Z,72.79
2022-08-24T06:35:26.330Z,72.67
2022-08-24T06:37:55.250Z,72.22
2022-08-24T06:40:25.886Z,71.85
2022-08-24T06:42:54.662Z,71.68
2022-08-24T06:45:43.825Z,71.47
2022-08-24T06:48:12.634Z,71.34
2022-08-24T06:50:40.503Z,71.05
2022-08-24T06:53:07.130Z,70.96
2022-08-24T06:55:34.777Z,70.77
2022-08-24T06:58:02.694Z,70.60
2022-08-24T07:00:30.751Z,70.47
2022-08-24T07:02:57.472Z,70.24
2022-08-24T07:05:24.239Z,69.87
2022-08-24T07:08:09.198Z,69.67
2022-08-24T07:10:38.153Z,69.69
2022-08-24T07:13:05.060Z,69.39
2022-08-24T07:15:31.912Z,69.05
2022-08-24T07:18:12.659Z,68.03
2022-08-24T07:20:42.722Z,67.81
2022-08-24T07:23:22.088Z,67.18
2022-08-24T07:26:21.132Z,66.83
2022-08-24T07:28:52.393Z,66.22
2022-08-24T07:31:21.153Z,66.33
2022-08-24T07:33:59.660Z,66.22
2022-08-24T07:36:28.467Z,65.90
2022-08-24T07:38:57.350Z,66.02
2022-08-24T07:44:17.418Z,65.67
2022-08-24T07:46:45.184Z,65.33
2022-08-24T07:49:31.646Z,65.25
2022-08-24T07:52:01.906Z,65.20
2022-08-24T07:54:29.089Z,65.29
2022-08-24T07:56:59.992Z,65.14
2022-08-24T07:59:27.094Z,65.23
2022-08-24T08:01:53.742Z,65.24
2022-08-24T08:04:24.280Z,65.06
2022-08-24T08:06:52.085Z,64.58
2022-08-24T08:09:20.004Z,64.62
2022-08-24T08:11:46.696Z,64.68
2022-08-24T08:14:14.906Z,64.31
2022-08-24T08:16:41.998Z,64.22
2022-08-24T08:19:10.635Z,64.02
2022-08-24T08:22:04.528Z,63.90
2022-08-24T08:24:36.926Z,63.87
2022-08-24T08:27:03.731Z,63.52
2022-08-24T08:29:39.556Z,63.44
2022-08-24T08:32:07.937Z,63.11
2022-08-24T08:34:34.627Z,62.59
2022-08-24T08:37:03.627Z,62.39
2022-08-24T08:39:30.494Z,62.21
2022-08-24T08:42:17.096Z,61.66
2022-08-24T08:45:27.119Z,61.31
2022-08-24T08:48:39.654Z,60.86
2022-08-24T08:51:40.785Z,61.14
2022-08-24T08:54:26.501Z,60.98
2022-08-24T08:57:17.458Z,60.57
2022-08-24T09:00:10.081Z,59.86
2022-08-24T09:03:03.514Z,59.72
2022-08-24T09:06:10.756Z,59.66
2022-08-24T09:09:03.580Z,59.64
2022-08-24T09:11:43.612Z,59.41
2022-08-24T09:14:44.858Z,59.47
2022-08-24T09:17:33.303Z,58.80
2022-08-24T09:20:31.545Z,58.75
2022-08-24T09:23:30.549Z,59.01
2022-08-24T09:26:19.193Z,58.86
2022-08-24T09:29:03.708Z,58.35
2022-08-24T09:31:51.724Z,57.93
2022-08-24T09:34:25.921Z,57.76
2022-08-24T09:36:57.321Z,58.23
2022-08-24T09:39:53.389Z,58.06
2022-08-24T09:42:52.246Z,57.72
2022-08-24T09:45:52.240Z,56.47
2022-08-24T09:48:24.730Z,56.49
2022-08-24T09:51:06.283Z,55.52
2022-08-24T09:53:56.810Z,55.89
2022-08-24T09:57:12.107Z,55.18
2022-08-24T09:59:48.472Z,53.96
2022-08-24T10:02:56.407Z,52.66
2022-08-24T10:05:42.088Z,52.35
2022-08-24T10:08:47.231Z,52.31
2022-08-24T10:11:35.512Z,51.75
2022-08-24T10:14:34.199Z,51.69
2022-08-24T10:17:37.015Z,52.25
2022-08-24T10:20:16.865Z,52.05
2022-08-24T10:23:05.747Z,51.94
2022-08-24T10:26:00.364Z,51.61
2022-08-24T10:29:10.231Z,51.33
2022-08-24T10:31:37.023Z,50.74
2022-08-24T10:34:22.762Z,51.28
2022-08-24T10:37:08.431Z,50.78
2022-08-24T10:40:22.054Z,50.47
2022-08-24T10:43:35.612Z,50.35
2022-08-24T10:46:45.590Z,49.86
2022-08-24T10:49:36.389Z,49.03
2022-08-24T10:52:12.261Z,48.78
2022-08-24T10:54:39.143Z,47.95
2022-08-24T10:57:12.149Z,47.98
2022-08-24T10:59:57.419Z,48.50
2022-08-24T11:02:31.398Z,48.23
2022-08-24T11:05:05.746Z,48.03
2022-08-24T11:07:33.069Z,47.53
2022-08-24T11:10:02.847Z,47.59
2022-08-24T11:12:29.440Z,46.80
2022-08-24T11:14:59.573Z,47.25
2022-08-24T11:17:29.440Z,46.96
2022-08-24T11:19:57.466Z,46.87
2022-08-24T11:22:57.933Z,46.23
2022-08-24T11:25:30.444Z,46.03
2022-08-24T11:28:09.611Z,46.03
2022-08-24T11:30:40.177Z,45.78
2022-08-24T11:33:26.097Z,45.40
2022-08-24T11:35:52.841Z,45.72
2022-08-24T11:38:23.645Z,45.74
2022-08-24T11:40:52.035Z,45.30
2022-08-24T11:43:42.922Z,44.51
2022-08-24T11:46:15.972Z,44.73
2022-08-24T11:49:03.731Z,44.08
2022-08-24T11:51:44.389Z,43.70
2022-08-24T11:54:34.574Z,43.99
2022-08-24T11:57:08.467Z,43.98
2022-08-24T11:59:57.269Z,43.68
2022-08-24T12:02:35.548Z,43.22
2022-08-24T12:05:26.746Z,42.87
2022-08-24T12:08:10.304Z,42.22
2022-08-24T12:10:57.924Z,42.32
2022-08-24T12:13:58.528Z,41.50
2022-08-24T12:17:02.290Z,41.37
2022-08-24T12:19:36.310Z,40.63
2022-08-24T12:22:07.209Z,40.41
2022-08-24T12:24:41.360Z,40.79
2022-08-24T12:27:29.541Z,40.55
2022-08-24T12:30:05.903Z,40.41
2022-08-24T12:33:05.682Z,40.13
2022-08-24T12:35:42.532Z,39.88
2022-08-24T12:38:13.297Z,40.01
2022-08-24T12:40:48.186Z,39.59
2022-08-24T12:43:25.253Z,39.93
2022-08-24T12:45:55.208Z,39.76
2022-08-24T12:48:27.643Z,39.45
2022-08-24T12:51:39.486Z,39.34
2022-08-24T12:54:11.900Z,39.81
2022-08-24T12:57:02.922Z,39.35
2022-08-24T12:59:39.553Z,39.47
2022-08-24T13:02:28.315Z,38.55
2022-08-24T13:04:59.402Z,39.25
2022-08-24T13:07:39.926Z,38.65
2022-08-24T13:10:14.663Z,39.27
2022-08-24T13:12:45.045Z,38.66
2022-08-24T13:15:28.365Z,38.46
2022-08-24T13:18:07.470Z,38.13
2022-08-24T13:20:36.985Z,38.18
2022-08-24T13:23:13.981Z,37.88
2022-08-24T13:25:46.794Z,37.69
2022-08-24T13:28:22.549Z,38.75
2022-08-24T13:31:23.167Z,37.68
2022-08-24T13:33:49.855Z,37.36
2022-08-24T13:36:31.666Z,38.12
2022-08-24T13:39:01.276Z,37.65
2022-08-24T13:41:43.112Z,38.07
2022-08-24T13:44:15.854Z,37.71
2022-08-24T13:47:22.783Z,37.73
2022-08-24T13:50:26.777Z,37.87
2022-08-24T13:53:15.091Z,37.90
2022-08-24T13:55:52.072Z,38.02
2022-08-24T13:58:46.426Z,37.15
2022-08-24T14:01:35.118Z,36.95
2022-08-24T14:04:12.004Z,36.83
2022-08-24T14:06:56.624Z,36.24
2022-08-24T14:09:48.438Z,37.56
2022-08-24T14:12:30.458Z,38.60
2022-08-24T14:15:02.673Z,39.14
2022-08-24T14:17:55.466Z,39.67
2022-08-24T14:21:17.960Z,40.07
2022-08-24T14:23:55.649Z,39.96
2022-08-24T14:26:34.394Z,40.03
2022-08-24T14:29:34.666Z,39.05
2022-08-24T14:32:11.785Z,39.08
2022-08-24T14:34:41.885Z,39.26
2022-08-24T14:37:14.464Z,39.59
2022-08-24T14:40:15.267Z,39.30
2022-08-24T14:42:59.820Z,39.76
2022-08-24T14:46:04.309Z,40.30
2022-08-24T14:48:50.398Z,40.68
2022-08-24T14:51:51.092Z,40.69
2022-08-24T14:54:17.675Z,40.85
2022-08-24T14:56:58.903Z,40.59
2022-08-24T14:59:53.224Z,40.67
2022-08-24T15:02:46.862Z,40.59
2022-08-24T15:05:31.500Z,40.14
2022-08-24T15:08:01.397Z,40.27
2022-08-24T15:10:48.731Z,39.88
2022-08-24T15:13:36.176Z,39.59
2022-08-24T15:16:25.535Z,39.67
2022-08-24T15:19:27.239Z,39.26
2022-08-24T15:21:56.966Z,39.34
2022-08-24T15:24:55.076Z,39.20
2022-08-24T15:27:33.045Z,39.57
2022-08-24T15:30:05.682Z,39.31
2022-08-24T15:32:49.694Z,39.31
2022-08-24T15:35:27.123Z,39.51
2022-08-24T15:37:54.114Z,39.52
2022-08-24T15:40:29.622Z,39.87
2022-08-24T15:43:04.023Z,39.64
2022-08-24T15:45:32.412Z,39.23
2022-08-24T15:48:01.423Z,39.51
2022-08-24T15:50:33.800Z,39.27
2022-08-24T15:53:02.926Z,39.77
2022-08-24T15:55:37.883Z,39.60
2022-08-24T15:58:19.493Z,39.45
2022-08-24T16:01:05.127Z,39.63
2022-08-24T16:03:53.959Z,39.37
2022-08-24T16:06:32.352Z,39.26
2022-08-24T16:09:34.340Z,39.10
2022-08-24T16:12:03.739Z,39.17
2022-08-24T16:14:39.156Z,39.86
2022-08-24T16:17:49.218Z,39.84
2022-08-24T16:20:23.421Z,40.15
2022-08-24T16:23:00.247Z,40.42
2022-08-24T16:25:31.105Z,40.82
2022-08-24T16:28:09.915Z,40.08
2022-08-24T16:30:39.289Z,40.15
2022-08-24T16:33:06.724Z,40.10
2022-08-24T16:35:33.482Z,40.03
2022-08-24T16:38:01.064Z,39.66
2022-08-24T16:40:29.344Z,40.11
2022-08-24T16:42:56.500Z,40.09
2022-08-24T16:45:23.869Z,40.59
2022-08-24T16:47:50.544Z,40.38
2022-08-24T16:50:20.519Z,40.57
2022-08-24T16:52:48.971Z,40.25
2022-08-24T16:55:15.700Z,40.41
2022-08-24T16:57:42.515Z,40.13
2022-08-24T17:00:16.232Z,40.05
2022-08-24T17:02:44.861Z,40.28
2022-08-24T17:05:11.883Z,40.74
2022-08-24T17:07:38.542Z,40.79
2022-08-24T17:10:09.097Z,40.59
2022-08-24T17:12:37.024Z,40.95
2022-08-24T17:15:06.492Z,41.11
2022-08-24T17:17:33.443Z,41.30
2022-08-24T17:20:00.329Z,41.59
2022-08-24T17:22:27.601Z,42.22
2022-08-24T17:24:54.244Z,42.64
2022-08-24T17:27:26.783Z,43.06
2022-08-24T17:29:53.401Z,43.21
2022-08-24T17:32:20.014Z,44.28
2022-08-24T17:34:46.595Z,44.75
2022-08-24T17:37:13.283Z,45.27
2022-08-24T17:39:40.088Z,46.28
2022-08-24T17:42:20.985Z,46.70
2022-08-24T17:44:47.814Z,46.91
2022-08-24T17:47:15.252Z,47.78
2022-08-24T17:49:41.896Z,47.74
2022-08-24T17:52:08.507Z,48.58
2022-08-24T17:54:35.264Z,48.64
2022-08-24T17:57:02.127Z,49.67
2022-08-24T17:59:31.786Z,49.48
2022-08-24T18:02:00.713Z,50.23
2022-08-24T18:04:30.057Z,50.49
2022-08-24T18:07:03.320Z,50.70
2022-08-24T18:09:37.377Z,51.13
2022-08-24T18:12:08.765Z,51.44
2022-08-24T18:14:36.031Z,51.45
2022-08-24T18:17:06.910Z,52.06
2022-08-24T18:19:34.471Z,51.96
2022-08-24T18:22:01.877Z,52.11
2022-08-24T18:24:32.594Z,52.37
2022-08-24T18:27:10.852Z,52.62
2022-08-24T18:29:40.646Z,52.66
2022-08-24T18:32:10.111Z,52.72
2022-08-24T18:34:37.126Z,53.02
2022-08-24T18:37:04.223Z,53.30
2022-08-24T18:39:30.868Z,53.42
2022-08-24T18:42:01.118Z,53.76
2022-08-24T18:44:31.620Z,54.12
2022-08-24T18:46:59.482Z,53.98
2022-08-24T18:49:26.837Z,54.11
2022-08-24T18:51:53.588Z,54.45
2022-08-24T18:54:29.092Z,54.57
2022-08-24T18:56:55.699Z,54.81
2022-08-24T18:59:22.362Z,55.34
2022-08-24T19:02:09.655Z,55.89
2022-08-24T19:04:44.190Z,56.48
2022-08-24T19:07:11.134Z,56.91
2022-08-24T19:09:38.214Z,57.19
2022-08-24T19:12:06.363Z,57.37
2022-08-24T19:14:34.396Z,58.00
2022-08-24T19:17:01.117Z,57.90
2022-08-24T19:19:27.763Z,58.11
2022-08-24T19:21:54.607Z,58.22
2022-08-24T19:24:25.623Z,58.50
2022-08-24T19:26:52.463Z,58.44
2022-08-24T19:29:38.910Z,58.72
2022-08-24T19:32:10.039Z,58.75
2022-08-24T19:34:42.970Z,59.01
2022-08-24T19:37:10.020Z,59.08
2022-08-24T19:39:36.609Z,59.28
2022-08-24T19:42:04.234Z,59.45
2022-08-24T19:44:51.971Z,59.84
2022-08-24T19:47:18.750Z,59.95
2022-08-24T19:49:45.712Z,60.12
2022-08-24T19:52:13.457Z,60.03
2022-08-24T19:54:44.504Z,60.42
2022-08-24T19:57:29.327Z,60.12
2022-08-24T19:59:59.967Z,60.06
2022-08-24T20:02:27.094Z,60.40
2022-08-24T20:04:53.785Z,60.39
2022-08-24T20:07:20.596Z,60.63
2022-08-24T20:09:47.272Z,60.75
2022-08-24T20:12:13.936Z,60.92
2022-08-24T20:14:40.566Z,60.95
2022-08-24T20:17:07.160Z,60.99
2022-08-24T20:19:37.898Z,61.20
2022-08-24T20:22:13.135Z,61.03
2022-08-24T20:24:40.346Z,61.14
2022-08-24T20:27:06.915Z,61.25
2022-08-24T20:29:33.536Z,61.27
2022-08-24T20:32:02.554Z,61.23
2022-08-24T20:34:29.697Z,61.65
2022-08-24T20:36:57.400Z,61.64
2022-08-24T20:39:26.048Z,61.43
2022-08-24T20:41:53.398Z,61.69
2022-08-24T20:44:21.116Z,61.74
2022-08-24T20:46:50.097Z,61.46
2022-08-24T20:49:21.138Z,61.69
2022-08-24T20:51:47.613Z,61.56
2022-08-24T20:54:14.848Z,61.69
2022-08-24T20:56:43.981Z,61.81
2022-08-24T20:59:13.011Z,61.75
2022-08-24T21:01:43.520Z,62.03
2022-08-24T21:04:10.639Z,61.87
2022-08-24T21:06:40.458Z,62.00
2022-08-24T21:09:07.416Z,61.81
2022-08-24T21:11:40.987Z,61.78
2022-08-24T21:14:08.574Z,61.76
2022-08-24T21:16:39.561Z,61.71
2022-08-24T21:19:06.745Z,61.87
2022-08-24T21:21:33.690Z,62.07
2022-08-24T21:24:01.768Z,61.97
2022-08-24T21:26:29.516Z,62.14
2022-08-24T21:28:58.124Z,62.09
2022-08-24T21:31:26.337Z,62.09
2022-08-24T21:34:12.285Z,62.14
2022-08-24T21:36:39.976Z,61.97
2022-08-24T21:39:10.718Z,62.35
2022-08-24T21:41:37.989Z,61.99
2022-08-24T21:44:04.610Z,62.16
2022-08-24T21:46:35.422Z,62.20
2022-08-24T21:49:03.058Z,62.35
2022-08-24T21:51:30.318Z,62.24
2022-08-24T21:53:59.576Z,62.60
2022-08-24T21:56:30.616Z,62.66
2022-08-24T21:58:57.464Z,62.53
2022-08-24T22:01:24.220Z,62.95
2022-08-24T22:03:50.932Z,62.92
2022-08-24T22:06:18.304Z,62.83
2022-08-24T22:08:44.918Z,62.92
2022-08-24T22:11:13.438Z,63.10
2022-08-24T22:13:40.536Z,63.45
2022-08-24T22:16:07.670Z,63.29
2022-08-24T22:18:35.392Z,63.41
2022-08-24T22:21:11.590Z,63.34
2022-08-24T22:23:38.980Z,63.63
2022-08-24T22:26:05.835Z,63.92
2022-08-24T22:28:37.981Z,64.02
2022-08-24T22:31:18.318Z,64.27
2022-08-24T22:33:45.088Z,64.04
2022-08-24T22:36:15.367Z,64.31
2022-08-24T22:38:42.700Z,64.49
2022-08-24T22:41:09.770Z,64.49
2022-08-24T22:43:54.965Z,64.60
2022-08-24T22:46:23.157Z,64.91
2022-08-24T22:48:49.950Z,65.11
2022-08-24T22:51:16.583Z,65.48
2022-08-24T22:53:43.159Z,65.21
2022-08-24T22:56:19.176Z,65.65
2022-08-24T22:58:46.251Z,65.93
2022-08-24T23:01:31.050Z,66.21
2022-08-24T23:04:01.837Z,66.01
2022-08-24T23:06:28.994Z,66.72
2022-08-24T23:08:56.138Z,66.73
2022-08-24T23:11:26.706Z,66.99
2022-08-24T23:13:56.333Z,67.45
2022-08-24T23:16:24.917Z,67.38
2022-08-24T23:19:10.012Z,67.81
2022-08-24T23:21:36.747Z,67.86
2022-08-24T23:24:03.962Z,68.14
2022-08-24T23:26:32.591Z,68.20
2022-08-24T23:29:00.606Z,68.03
2022-08-24T23:31:27.335Z,68.21
2022-08-24T23:33:54.205Z,68.38
2022-08-24T23:36:23.636Z,68.68
2022-08-24T23:38:55.081Z,68.67
2022-08-24T23:41:33.533Z,68.46
2022-08-24T23:44:03.163Z,68.21
2022-08-24T23:46:29.822Z,68.46
2022-08-24T23:48:57.941Z,68.56
2022-08-24T23:51:27.133Z,68.52
2022-08-24T23:53:53.914Z,68.62
2022-08-24T23:56:25.431Z,68.81
2022-08-24T23:58:53.130Z,69.17
